createdAt,value
2023-04-19T00:00:58.083Z,10.20
2023-04-19T00:03:33.668Z,9.53
2023-04-19T00:06:10.978Z,11.30
2023-04-19T00:35:37.694Z,8.83
2023-04-19T00:38:14.932Z,10.83
2023-04-19T00:40:50.242Z,10.57
2023-04-19T01:12:38.911Z,15.17
2023-04-19T01:15:10.462Z,12.77
2023-04-19T01:17:41.827Z,12.90
2023-04-19T01:20:15.952Z,15.30
2023-04-19T01:22:52.082Z,15.80
2023-04-19T01:25:21.985Z,13.90
2023-04-19T01:34:51.544Z,15.13
2023-04-19T01:41:43.771Z,15.37
2023-04-19T02:05:34.469Z,14.37
2023-04-19T02:08:07.543Z,15.03
2023-04-19T02:10:37.562Z,14.67
2023-04-19T02:13:13.833Z,12.70
2023-04-19T02:15:46.436Z,11.67
2023-04-19T02:18:23.036Z,12.83
2023-04-19T02:20:57.647Z,12.57
2023-04-19T02:23:27.814Z,13.10
2023-04-19T02:26:16.270Z,12.57
2023-04-19T02:28:51.864Z,11.37
2023-04-19T02:31:27.180Z,10.50
2023-04-19T02:33:59.635Z,9.90
2023-04-19T09:56:18.982Z,5.30
2023-04-19T10:33:40.698Z,4.70
2023-04-19T10:38:23.156Z,5.53
2023-04-19T10:43:31.436Z,4.82
2023-04-19T10:50:23.889Z,6.05
2023-04-19T10:53:00.513Z,4.93
2023-04-19T10:55:39.396Z,4.78
2023-04-19T11:16:38.276Z,4.43
2023-04-19T11:27:49.671Z,5.10
2023-04-19T11:30:33.466Z,3.80
2023-04-19T11:33:03.813Z,3.67
2023-04-19T11:35:36.649Z,5.77
2023-04-19T11:38:10.526Z,3.90
2023-04-19T11:40:43.065Z,5.30
2023-04-19T11:43:12.994Z,4.37
2023-04-19T11:45:50.050Z,7.17
2023-04-19T11:48:19.879Z,5.00
2023-04-19T11:50:50.294Z,6.43
2023-04-19T11:53:29.885Z,5.27
2023-04-19T11:56:12.164Z,4.17
2023-04-19T11:58:48.490Z,5.00
2023-04-19T12:01:21.183Z,5.87
2023-04-19T12:03:55.488Z,4.60
2023-04-19T12:06:32.583Z,6.30
2023-04-19T12:09:03.116Z,7.87
2023-04-19T12:11:53.384Z,6.23
2023-04-19T12:14:26.883Z,6.37
2023-04-19T12:17:13.336Z,4.07
2023-04-19T12:19:46.954Z,9.20
2023-04-19T12:22:20.632Z,4.50
2023-04-19T12:24:51.121Z,6.17
2023-04-19T12:27:31.468Z,6.50
2023-04-19T12:30:03.660Z,8.33
2023-04-19T12:32:33.464Z,8.90
2023-04-19T12:35:03.287Z,7.10
2023-04-19T12:37:36.701Z,4.90
2023-04-19T12:40:09.604Z,5.53
2023-04-19T12:42:42.061Z,7.63
2023-04-19T12:45:17.351Z,6.57
2023-04-19T12:47:51.433Z,5.50
2023-04-19T12:50:21.394Z,5.27
2023-04-19T12:52:54.270Z,6.23
2023-04-19T12:55:27.384Z,6.03
2023-04-19T12:58:04.244Z,7.70
2023-04-19T13:00:37.105Z,5.97
2023-04-19T13:03:09.812Z,6.10
2023-04-19T13:05:45.095Z,7.60
2023-04-19T13:08:28.218Z,6.27
2023-04-19T13:11:25.320Z,7.60
2023-04-19T13:14:00.913Z,5.70
2023-04-19T13:16:30.842Z,6.47
2023-04-19T13:19:00.799Z,6.17
2023-04-19T13:21:33.285Z,6.50
2023-04-19T13:24:03.225Z,4.80
2023-04-19T13:26:46.961Z,7.43
2023-04-19T13:29:20.216Z,4.40
2023-04-19T13:31:50.133Z,8.87
2023-04-19T13:34:24.116Z,10.93
2023-04-19T13:37:01.699Z,7.67
2023-04-19T13:39:33.925Z,8.80
2023-04-19T13:42:04.565Z,8.77
2023-04-19T13:44:40.220Z,7.67
2023-04-19T13:47:10.072Z,7.20
2023-04-19T13:49:43.291Z,6.87
2023-04-19T13:52:15.274Z,8.17
2023-04-19T13:54:45.076Z,7.23
2023-04-19T13:57:17.563Z,6.40
2023-04-19T13:59:52.968Z,6.43
2023-04-19T14:02:27.203Z,8.33
2023-04-19T14:05:00.141Z,8.63
2023-04-19T14:07:33.332Z,9.47
2023-04-19T14:10:03.278Z,8.33
2023-04-19T14:12:34.535Z,8.40
2023-04-19T14:15:07.768Z,7.43
2023-04-19T14:17:37.750Z,6.00
2023-04-19T14:20:15.779Z,5.93
2023-04-19T14:22:46.357Z,8.50
2023-04-19T14:25:18.652Z,10.03
2023-04-19T14:27:48.506Z,6.63
2023-04-19T14:30:26.209Z,8.30
2023-04-19T14:32:58.963Z,5.47
2023-04-19T14:35:34.538Z,5.43
2023-04-19T14:38:04.423Z,6.57
2023-04-19T14:40:40.376Z,3.97
2023-04-19T14:43:14.069Z,3.70
2023-04-19T14:45:51.002Z,4.30
2023-04-19T14:48:22.449Z,4.60
2023-04-19T14:50:52.509Z,5.20
2023-04-19T14:53:27.808Z,3.70
2023-04-19T14:55:57.667Z,3.23
2023-04-19T14:58:27.506Z,3.53
2023-04-19T15:01:04.706Z,4.37
2023-04-19T15:03:40.614Z,4.07
2023-04-19T15:06:11.058Z,2.30
2023-04-19T15:08:41.456Z,4.13
2023-04-19T15:11:13.936Z,4.93
2023-04-19T15:13:47.218Z,3.47
2023-04-19T15:19:09.502Z,4.80
2023-04-19T15:21:41.459Z,5.80
2023-04-19T15:24:14.834Z,4.60
2023-04-19T15:26:48.862Z,3.87
2023-04-19T15:29:33.570Z,4.90
2023-04-19T15:32:17.361Z,6.40
2023-04-19T15:34:52.146Z,6.37
2023-04-19T15:37:34.689Z,5.87
2023-04-19T15:40:06.404Z,6.70
2023-04-19T15:42:43.884Z,5.90
2023-04-19T15:45:16.779Z,7.17
2023-04-19T15:47:51.942Z,5.73
2023-04-19T15:50:30.954Z,7.37
2023-04-19T15:53:10.754Z,6.83
2023-04-19T15:55:55.342Z,6.57
2023-04-19T15:58:34.201Z,6.53
2023-04-19T16:01:04.058Z,7.67
2023-04-19T16:03:36.627Z,6.83
2023-04-19T16:06:06.557Z,6.63
2023-04-19T16:08:36.548Z,6.47
2023-04-19T16:11:10.679Z,8.03
2023-04-19T16:13:44.421Z,5.27
2023-04-19T16:16:19.724Z,7.07
2023-04-19T16:18:54.592Z,5.00
2023-04-19T16:21:28.796Z,9.00
2023-04-19T16:24:01.277Z,6.13
2023-04-19T16:26:31.310Z,6.87
2023-04-19T16:29:02.162Z,6.00
2023-04-19T16:31:36.640Z,7.83
2023-04-19T16:34:09.318Z,6.93
2023-04-19T16:36:45.034Z,9.87
2023-04-19T16:39:17.351Z,7.07
2023-04-19T16:41:47.431Z,6.60
2023-04-19T16:44:34.132Z,5.90
2023-04-19T16:47:14.114Z,5.40
2023-04-19T16:49:48.125Z,5.33
2023-04-19T16:52:17.941Z,5.43
2023-04-19T16:54:47.892Z,8.27
2023-04-19T16:57:17.875Z,8.60
2023-04-19T16:59:49.949Z,5.27
2023-04-19T17:02:22.106Z,5.73
2023-04-19T17:04:54.830Z,4.73
2023-04-19T17:07:31.021Z,5.40
2023-04-19T17:10:00.900Z,6.20
2023-04-19T17:12:33.796Z,4.30
2023-04-19T17:15:10.770Z,5.23
2023-04-19T17:17:45.146Z,5.70
2023-04-19T17:20:20.508Z,8.73
2023-04-19T17:22:53.215Z,5.80
2023-04-19T17:25:29.910Z,3.83
2023-04-19T17:28:02.751Z,4.57
2023-04-19T17:30:41.827Z,7.20
2023-04-19T17:33:12.875Z,3.63
2023-04-19T17:35:46.614Z,4.17
2023-04-19T17:38:16.457Z,5.63
2023-04-19T17:40:46.278Z,6.37
2023-04-19T17:43:19.136Z,6.00
2023-04-19T17:45:56.410Z,5.03
2023-04-19T17:48:26.242Z,5.33
2023-04-19T17:51:00.807Z,5.03
2023-04-19T17:53:33.240Z,5.50
2023-04-19T17:56:03.225Z,5.80
2023-04-19T17:58:36.286Z,4.93
2023-04-19T18:01:06.810Z,6.73
2023-04-19T18:03:36.978Z,5.30
2023-04-19T18:06:12.184Z,5.63
2023-04-19T18:08:42.018Z,6.47
2023-04-19T18:11:13.230Z,5.37
2023-04-19T18:13:45.224Z,5.63
2023-04-19T18:16:21.043Z,5.73
2023-04-19T18:18:50.935Z,6.00
2023-04-19T18:21:28.438Z,5.37
2023-04-19T18:24:01.312Z,5.87
2023-04-19T18:26:40.075Z,3.07
2023-04-19T18:29:09.950Z,4.37
2023-04-19T18:31:42.055Z,3.90
2023-04-19T18:34:19.973Z,3.10
2023-04-19T18:36:52.470Z,4.23
2023-04-19T18:39:22.291Z,5.97
2023-04-19T18:41:52.280Z,4.83
2023-04-19T18:44:44.119Z,6.33
2023-04-19T18:47:13.194Z,4.23
2023-04-19T18:49:52.739Z,4.67
2023-04-19T18:52:32.025Z,4.53
2023-04-19T18:55:01.896Z,3.20
2023-04-19T18:57:34.957Z,3.80
2023-04-19T19:00:06.557Z,5.97
2023-04-19T19:02:37.650Z,4.40
2023-04-19T19:05:10.213Z,4.60
2023-04-19T19:07:42.877Z,4.73
2023-04-19T19:10:19.180Z,5.37
2023-04-19T19:12:51.767Z,4.67
2023-04-19T19:15:22.007Z,4.43
2023-04-19T19:17:51.859Z,4.00
2023-04-19T19:20:22.525Z,3.63
2023-04-19T19:22:54.927Z,8.03
2023-04-19T19:25:25.132Z,4.00
2023-04-19T19:28:07.009Z,5.30
2023-04-19T19:30:50.622Z,6.83
2023-04-19T19:33:21.494Z,4.30
2023-04-19T19:35:51.363Z,4.97
2023-04-19T19:38:23.804Z,4.47
2023-04-19T19:41:28.447Z,5.10
2023-04-19T19:43:43.560Z,6.27
2023-04-19T19:46:13.939Z,6.00
2023-04-19T19:48:44.088Z,3.40
2023-04-19T19:51:44.302Z,3.93
2023-04-19T19:54:06.465Z,3.87
2023-04-19T19:56:36.302Z,4.30
2023-04-19T19:59:07.532Z,5.47
2023-04-19T20:01:37.323Z,3.67
2023-04-19T20:04:07.490Z,5.73
2023-04-19T20:07:25.299Z,3.83
2023-04-19T20:09:30.214Z,5.80
2023-04-19T20:12:01.281Z,5.07
2023-04-19T20:14:31.275Z,3.07
2023-04-19T20:17:02.859Z,5.87
2023-04-19T20:19:33.054Z,3.90
2023-04-19T20:22:05.781Z,3.80
2023-04-19T20:24:42.503Z,4.37
2023-04-19T20:27:12.406Z,3.07
2023-04-19T20:29:43.066Z,4.10
2023-04-19T20:32:12.914Z,4.43
2023-04-19T20:34:42.752Z,3.23
2023-04-19T20:37:12.993Z,4.57
2023-04-19T20:39:53.727Z,6.30
2023-04-19T20:42:27.002Z,4.53
2023-04-19T20:44:56.780Z,4.70
2023-04-19T20:47:26.985Z,6.17
2023-04-19T20:49:59.111Z,6.37
2023-04-19T20:52:28.937Z,4.50
2023-04-19T20:55:01.356Z,4.83
2023-04-19T20:57:31.152Z,6.40
2023-04-19T21:00:01.744Z,5.50
2023-04-19T21:02:31.733Z,4.87
2023-04-19T21:05:01.706Z,3.90
2023-04-19T21:07:31.775Z,6.27
2023-04-19T21:10:04.605Z,4.13
2023-04-19T21:12:34.541Z,5.03
2023-04-19T21:15:15.563Z,4.87
2023-04-19T21:17:52.727Z,5.57
2023-04-19T21:20:22.697Z,4.67
2023-04-19T21:22:52.661Z,4.63
2023-04-19T21:25:26.061Z,5.57
2023-04-19T21:28:12.311Z,4.13
2023-04-19T21:30:44.648Z,5.77
2023-04-19T21:33:14.587Z,5.77
2023-04-19T21:35:45.265Z,3.67
2023-04-19T21:38:15.229Z,5.73
2023-04-19T21:40:49.176Z,4.30
2023-04-19T21:43:20.732Z,6.57
2023-04-19T21:45:50.654Z,7.27
2023-04-19T21:48:20.486Z,7.53
2023-04-19T21:51:08.342Z,5.30
2023-04-19T21:53:59.468Z,5.03
2023-04-19T22:00:35.364Z,5.53
2023-04-19T22:14:48.986Z,9.33
2023-04-19T22:17:21.628Z,7.67
2023-04-19T22:19:51.730Z,6.73
2023-04-19T22:22:21.583Z,6.83
2023-04-19T22:24:56.755Z,6.73
2023-04-19T22:27:27.616Z,6.10
2023-04-19T22:30:09.259Z,6.90
2023-04-19T22:32:54.684Z,6.50
2023-04-19T22:47:23.349Z,7.07
2023-04-19T22:50:09.948Z,7.13
2023-04-19T22:52:39.762Z,6.57
2023-04-19T22:55:10.402Z,8.67
2023-04-19T23:00:46.298Z,7.17
2023-04-19T23:03:16.317Z,5.03
2023-04-19T23:05:48.810Z,8.60
2023-04-19T23:08:18.635Z,7.77
2023-04-19T23:10:51.073Z,5.17
2023-04-19T23:13:21.201Z,5.00
2023-04-19T23:15:51.341Z,3.90
2023-04-19T23:18:26.145Z,4.43
2023-04-19T23:20:59.725Z,6.33
2023-04-19T23:23:29.780Z,4.67
2023-04-19T23:26:04.000Z,4.87
2023-04-19T23:28:36.219Z,4.77
2023-04-19T23:31:06.495Z,5.20
2023-04-19T23:33:38.571Z,6.50
2023-04-19T23:36:15.880Z,2.73
2023-04-19T23:38:45.982Z,4.83
2023-04-19T23:41:15.960Z,3.83
2023-04-19T23:43:49.605Z,4.17
2023-04-19T23:46:21.814Z,3.90
2023-04-19T23:48:51.761Z,6.13
2023-04-19T23:51:27.599Z,4.27
2023-04-19T23:53:57.557Z,6.20
2023-04-19T23:56:27.749Z,5.27
2023-04-19T23:59:00.124Z,4.10
